createdAt,value
2018-06-12T00:00:21.428Z,65.45
2018-06-12T00:02:50.512Z,66.07
2018-06-12T00:05:19.589Z,66.29
2018-06-12T00:07:48.687Z,66.80
2018-06-12T00:10:17.771Z,66.89
2018-06-12T00:12:46.881Z,66.49
2018-06-12T00:15:15.968Z,66.63
2018-06-12T00:17:45.074Z,66.12
2018-06-12T00:20:14.161Z,65.81
2018-06-12T00:22:43.264Z,66.01
2018-06-12T00:25:12.375Z,65.80
2018-06-12T00:27:41.432Z,65.64
2018-06-12T00:30:10.513Z,65.72
2018-06-12T00:32:39.612Z,66.32
2018-06-12T00:35:08.692Z,65.92
2018-06-12T00:37:37.795Z,66.41
2018-06-12T00:40:06.876Z,66.45
2018-06-12T00:42:35.994Z,65.73
2018-06-12T00:45:05.064Z,66.16
2018-06-12T00:47:34.160Z,65.54
2018-06-12T00:50:03.228Z,65.49
2018-06-12T00:52:32.316Z,65.83
2018-06-12T00:55:01.393Z,65.64
2018-06-12T00:57:30.488Z,65.92
2018-06-12T00:59:59.556Z,65.61
2018-06-12T01:02:28.652Z,65.60
2018-06-12T01:04:57.728Z,66.18
2018-06-12T01:07:26.816Z,66.07
2018-06-12T01:09:55.888Z,66.91
2018-06-12T01:12:24.992Z,67.11
2018-06-12T01:14:54.060Z,66.65
2018-06-12T01:17:23.137Z,66.36
2018-06-12T01:19:52.227Z,66.42
2018-06-12T01:22:21.304Z,66.20
2018-06-12T01:24:50.405Z,65.78
2018-06-12T01:27:19.480Z,66.33
2018-06-12T01:29:48.572Z,66.15
2018-06-12T01:32:17.640Z,66.30
2018-06-12T01:34:46.739Z,65.87
2018-06-12T01:37:15.804Z,66.41
2018-06-12T01:39:44.908Z,66.67
2018-06-12T01:42:14.000Z,66.58
2018-06-12T01:44:43.161Z,66.60
2018-06-12T01:47:12.228Z,67.30
2018-06-12T01:49:41.319Z,67.64
2018-06-12T01:52:10.396Z,67.95
2018-06-12T01:54:39.488Z,67.75
2018-06-12T01:57:08.577Z,67.39
2018-06-12T01:59:37.663Z,67.41
2018-06-12T02:02:06.735Z,68.13
2018-06-12T02:04:35.844Z,67.99
2018-06-12T02:07:04.915Z,67.80
2018-06-12T02:09:34.008Z,67.91
2018-06-12T02:12:03.082Z,68.35
2018-06-12T02:14:32.171Z,68.49
2018-06-12T02:17:01.243Z,68.76
2018-06-12T02:19:30.342Z,68.50
2018-06-12T02:21:59.420Z,68.56
2018-06-12T02:24:28.512Z,68.54
2018-06-12T02:26:57.580Z,68.77
2018-06-12T02:29:26.647Z,68.43
2018-06-12T02:31:55.748Z,68.93
2018-06-12T02:34:24.816Z,68.87
2018-06-12T02:36:53.917Z,68.30
2018-06-12T02:39:22.988Z,68.14
2018-06-12T02:41:52.084Z,67.75
2018-06-12T02:44:21.176Z,68.26
2018-06-12T02:46:50.272Z,68.17
2018-06-12T02:49:19.358Z,68.62
2018-06-12T02:51:48.441Z,69.14
2018-06-12T02:54:17.507Z,69.33
2018-06-12T02:56:46.600Z,69.20
2018-06-12T02:59:15.680Z,69.16
2018-06-12T03:01:44.785Z,68.70
2018-06-12T03:04:13.856Z,68.33
2018-06-12T03:06:42.940Z,68.51
2018-06-12T03:09:12.041Z,68.69
2018-06-12T03:11:41.141Z,68.36
2018-06-12T03:14:10.216Z,68.31
2018-06-12T03:16:39.315Z,68.29
2018-06-12T03:19:08.385Z,68.43
2018-06-12T03:21:37.488Z,68.41
2018-06-12T03:24:06.820Z,68.17
2018-06-12T03:26:35.916Z,68.25
2018-06-12T03:29:04.993Z,68.06
2018-06-12T03:31:34.092Z,68.68
2018-06-12T03:34:03.173Z,68.98
2018-06-12T03:36:32.276Z,68.95
2018-06-12T03:39:01.353Z,68.75
2018-06-12T03:41:30.974Z,69.01
2018-06-12T03:44:00.093Z,68.72
2018-06-12T03:46:29.192Z,68.46
2018-06-12T03:48:58.268Z,68.02
2018-06-12T03:51:27.396Z,68.08
2018-06-12T03:53:56.528Z,67.93
2018-06-12T03:56:25.608Z,67.82
2018-06-12T03:58:54.730Z,68.24
2018-06-12T04:01:23.809Z,67.88
2018-06-12T04:03:52.896Z,67.79
2018-06-12T04:06:23.017Z,67.51
2018-06-12T04:08:52.129Z,67.56
2018-06-12T04:11:21.204Z,67.03
2018-06-12T04:13:50.316Z,67.09
2018-06-12T04:16:19.402Z,66.82
2018-06-12T04:18:48.600Z,66.70
2018-06-12T04:21:17.685Z,66.97
2018-06-12T04:23:46.802Z,67.32
2018-06-12T04:26:15.967Z,67.20
2018-06-12T04:28:45.072Z,67.20
2018-06-12T04:31:15.184Z,66.88
2018-06-12T04:33:44.277Z,66.93
2018-06-12T04:36:13.360Z,66.55
2018-06-12T04:38:42.460Z,66.55
2018-06-12T04:41:11.567Z,66.07
2018-06-12T04:43:40.700Z,66.27
2018-06-12T04:46:09.792Z,66.54
2018-06-12T04:48:38.909Z,66.36
2018-06-12T04:51:08.008Z,66.26
2018-06-12T04:53:37.119Z,66.42
2018-06-12T04:56:06.396Z,66.57
2018-06-12T04:58:35.510Z,66.13
2018-06-12T05:01:04.612Z,65.54
2018-06-12T05:03:33.696Z,66.07
2018-06-12T05:06:02.828Z,65.22
2018-06-12T05:08:31.969Z,64.77
2018-06-12T05:11:01.081Z,64.22
2018-06-12T05:13:30.172Z,63.88
2018-06-12T05:15:59.292Z,64.42
2018-06-12T05:18:28.376Z,64.80
2018-06-12T05:20:57.488Z,64.63
2018-06-12T05:23:26.572Z,64.15
2018-06-12T05:25:55.681Z,64.71
2018-06-12T05:28:24.804Z,64.12
2018-06-12T05:30:53.989Z,63.92
2018-06-12T05:33:23.163Z,64.62
2018-06-12T05:35:52.271Z,63.77
2018-06-12T05:38:21.368Z,63.13
2018-06-12T05:40:50.530Z,61.82
2018-06-12T05:43:19.640Z,62.71
2018-06-12T05:45:48.748Z,62.87
2018-06-12T05:48:17.935Z,62.46
2018-06-12T05:50:47.040Z,63.20
2018-06-12T05:53:16.116Z,62.41
2018-06-12T05:55:45.326Z,61.61
2018-06-12T05:58:14.379Z,60.94
2018-06-12T06:00:43.504Z,61.92
2018-06-12T06:03:12.620Z,61.03
2018-06-12T06:05:41.741Z,61.10
2018-06-12T06:08:10.861Z,60.63
2018-06-12T06:10:39.976Z,60.39
2018-06-12T06:13:09.077Z,60.44
2018-06-12T06:15:38.300Z,61.08
2018-06-12T06:18:07.433Z,61.74
2018-06-12T06:20:36.532Z,60.44
2018-06-12T06:23:05.669Z,59.58
2018-06-12T06:25:34.752Z,57.81
2018-06-12T06:28:04.581Z,57.72
2018-06-12T06:30:33.664Z,58.55
2018-06-12T06:33:02.777Z,57.15
2018-06-12T06:35:31.856Z,58.39
2018-06-12T06:38:00.980Z,58.36
2018-06-12T06:40:30.073Z,58.01
2018-06-12T06:42:59.239Z,58.30
2018-06-12T06:45:28.319Z,59.32
2018-06-12T06:47:57.428Z,59.66
2018-06-12T06:50:26.506Z,59.47
2018-06-12T06:52:55.605Z,58.66
2018-06-12T06:55:24.680Z,59.47
2018-06-12T06:57:53.780Z,58.84
2018-06-12T07:00:22.844Z,58.06
2018-06-12T07:02:51.948Z,57.63
2018-06-12T07:05:21.025Z,57.26
2018-06-12T07:07:50.136Z,55.75
2018-06-12T07:10:19.220Z,55.87
2018-06-12T07:12:48.295Z,56.50
2018-06-12T07:15:17.406Z,54.95
2018-06-12T07:17:46.480Z,55.81
2018-06-12T07:21:21.887Z,54.72
2018-06-12T07:23:51.012Z,54.50
2018-06-12T07:26:20.097Z,53.95
2018-06-12T07:28:49.192Z,54.01
2018-06-12T07:31:18.280Z,54.43
2018-06-12T07:33:47.380Z,55.82
2018-06-12T07:36:16.464Z,54.74
2018-06-12T07:38:45.568Z,53.81
2018-06-12T07:41:14.653Z,51.62
2018-06-12T07:43:43.764Z,50.91
2018-06-12T07:46:12.836Z,52.09
2018-06-12T07:48:41.924Z,52.38
2018-06-12T07:51:10.994Z,53.93
2018-06-12T07:53:40.110Z,54.29
2018-06-12T07:56:09.179Z,54.70
2018-06-12T07:58:38.254Z,53.78
2018-06-12T08:01:07.341Z,53.94
2018-06-12T08:03:36.416Z,52.94
2018-06-12T08:06:05.516Z,54.74
2018-06-12T08:08:34.587Z,55.01
2018-06-12T08:11:03.680Z,53.73
2018-06-12T08:13:32.742Z,53.41
2018-06-12T08:16:01.824Z,54.48
2018-06-12T08:18:30.935Z,54.62
2018-06-12T08:20:59.993Z,54.11
2018-06-12T08:23:29.077Z,53.15
2018-06-12T08:25:58.168Z,52.68
2018-06-12T08:28:27.243Z,52.29
2018-06-12T08:30:56.334Z,52.28
2018-06-12T08:33:25.400Z,52.30
2018-06-12T08:35:54.487Z,52.14
2018-06-12T08:38:23.552Z,50.67
2018-06-12T08:40:53.481Z,51.88
2018-06-12T08:43:22.565Z,49.85
2018-06-12T08:45:51.660Z,49.61
2018-06-12T08:48:20.735Z,51.92
2018-06-12T08:50:49.837Z,49.62
2018-06-12T08:53:18.912Z,50.80
2018-06-12T08:55:48.009Z,51.49
2018-06-12T08:58:17.079Z,51.91
2018-06-12T09:00:46.216Z,52.07
2018-06-12T09:03:15.296Z,52.13
2018-06-12T09:05:44.407Z,52.36
2018-06-12T09:08:13.508Z,52.46
2018-06-12T09:10:42.580Z,50.94
2018-06-12T09:13:11.680Z,52.01
2018-06-12T09:15:40.764Z,50.22
2018-06-12T09:18:09.872Z,49.60
2018-06-12T09:20:38.940Z,49.94
2018-06-12T09:23:08.044Z,50.31
2018-06-12T09:25:37.121Z,50.98
2018-06-12T09:28:06.221Z,52.13
2018-06-12T09:30:35.298Z,52.86
2018-06-12T09:33:04.397Z,52.21
2018-06-12T09:35:33.468Z,51.78
2018-06-12T09:38:02.593Z,52.55
2018-06-12T09:40:31.669Z,50.89
2018-06-12T09:43:01.183Z,50.45
2018-06-12T09:45:30.264Z,50.83
2018-06-12T09:47:59.371Z,49.94
2018-06-12T09:50:28.444Z,51.40
2018-06-12T09:52:57.552Z,50.73
2018-06-12T09:55:26.625Z,49.48
2018-06-12T09:57:55.725Z,49.59
2018-06-12T10:00:30.120Z,48.81
2018-06-12T10:02:59.224Z,50.15
2018-06-12T10:05:28.308Z,49.58
2018-06-12T10:07:57.429Z,50.20
2018-06-12T10:10:26.493Z,49.13
2018-06-12T10:12:55.583Z,50.69
2018-06-12T10:15:24.684Z,50.23
2018-06-12T10:17:53.765Z,50.96
2018-06-12T10:20:22.871Z,51.44
2018-06-12T10:22:51.953Z,51.61
2018-06-12T10:25:21.049Z,51.02
2018-06-12T10:27:50.137Z,51.34
2018-06-12T10:30:19.240Z,50.93
2018-06-12T10:32:48.329Z,51.59
2018-06-12T10:35:17.437Z,50.54
2018-06-12T10:37:46.517Z,50.27
2018-06-12T10:40:15.703Z,50.28
2018-06-12T10:42:44.848Z,48.85
2018-06-12T10:45:13.937Z,48.21
2018-06-12T10:47:43.008Z,47.12
2018-06-12T10:50:12.097Z,47.85
2018-06-12T10:52:41.259Z,48.00
2018-06-12T10:55:10.389Z,48.20
2018-06-12T10:57:39.537Z,47.40
2018-06-12T11:00:09.612Z,48.00
2018-06-12T11:02:38.697Z,47.54
2018-06-12T11:05:07.884Z,49.02
2018-06-12T11:07:36.956Z,47.78
2018-06-12T11:10:06.101Z,47.87
2018-06-12T11:12:35.164Z,48.06
2018-06-12T11:15:04.272Z,48.31
2018-06-12T11:17:33.348Z,47.43
2018-06-12T11:20:02.453Z,47.53
2018-06-12T11:22:31.525Z,47.52
2018-06-12T11:25:00.822Z,47.41
2018-06-12T11:27:29.889Z,49.55
2018-06-12T11:29:58.956Z,48.81
2018-06-12T11:32:28.044Z,49.83
2018-06-12T11:34:57.106Z,48.85
2018-06-12T11:37:26.200Z,48.36
2018-06-12T11:39:55.277Z,48.79
2018-06-12T11:42:24.379Z,49.69
2018-06-12T11:44:53.494Z,50.27
2018-06-12T11:47:22.577Z,49.40
2018-06-12T11:49:51.652Z,50.26
2018-06-12T11:52:20.757Z,49.10
2018-06-12T11:54:49.821Z,48.76
2018-06-12T11:57:18.924Z,50.14
2018-06-12T11:59:48.005Z,49.78
2018-06-12T12:02:17.125Z,48.68
2018-06-12T12:04:46.366Z,47.13
2018-06-12T12:07:15.516Z,45.95
2018-06-12T12:09:44.545Z,44.30
2018-06-12T12:12:13.639Z,44.38
2018-06-12T12:14:42.756Z,43.14
2018-06-12T12:17:11.904Z,44.50
2018-06-12T12:19:40.973Z,45.73
2018-06-12T12:22:10.064Z,45.48
2018-06-12T12:24:39.128Z,45.77
2018-06-12T12:27:08.327Z,44.92
2018-06-12T12:29:37.413Z,45.24
2018-06-12T12:32:06.524Z,45.48
2018-06-12T12:34:35.593Z,45.58
2018-06-12T12:37:05.228Z,45.80
2018-06-12T12:39:34.321Z,47.73
2018-06-12T12:42:03.398Z,46.70
2018-06-12T12:44:32.513Z,46.18
2018-06-12T12:47:01.924Z,46.47
2018-06-12T12:49:31.016Z,45.84
2018-06-12T12:52:00.093Z,46.83
2018-06-12T12:54:29.189Z,46.73
2018-06-12T12:56:58.257Z,46.32
2018-06-12T12:59:27.356Z,47.07
2018-06-12T13:01:57.143Z,47.24
2018-06-12T13:04:26.251Z,47.01
2018-06-12T13:06:55.316Z,46.17
2018-06-12T13:09:24.415Z,45.41
2018-06-12T13:11:53.485Z,47.32
2018-06-12T13:14:22.579Z,46.57
2018-06-12T13:16:51.660Z,46.68
2018-06-12T13:19:20.793Z,46.59
2018-06-12T13:21:49.868Z,47.38
2018-06-12T13:24:18.976Z,47.41
2018-06-12T13:26:48.388Z,47.58
2018-06-12T13:29:17.492Z,47.76
2018-06-12T13:31:46.565Z,47.49
2018-06-12T13:34:15.672Z,46.76
2018-06-12T13:36:44.744Z,47.24
2018-06-12T13:39:13.840Z,47.06
2018-06-12T13:41:42.912Z,48.08
2018-06-12T13:44:12.042Z,47.73
2018-06-12T13:46:41.133Z,48.48
2018-06-12T13:49:10.232Z,47.79
2018-06-12T13:51:39.345Z,47.87
2018-06-12T13:54:08.419Z,49.29
2018-06-12T13:56:37.517Z,48.37
2018-06-12T13:59:06.600Z,47.12
2018-06-12T14:01:35.701Z,48.76
2018-06-12T14:04:04.798Z,47.63
2018-06-12T14:06:33.908Z,49.20
2018-06-12T14:09:02.997Z,48.58
2018-06-12T14:11:32.118Z,49.19
2018-06-12T14:14:01.180Z,47.80
2018-06-12T14:16:30.269Z,49.79
2018-06-12T14:18:59.335Z,46.61
2018-06-12T14:21:28.448Z,47.99
2018-06-12T14:23:57.541Z,48.53
2018-06-12T14:26:26.644Z,48.61
2018-06-12T14:28:55.720Z,49.18
2018-06-12T14:31:24.817Z,47.66
2018-06-12T14:33:54.318Z,48.42
2018-06-12T14:36:23.368Z,49.21
2018-06-12T14:38:52.432Z,48.73
2018-06-12T14:41:21.524Z,48.66
2018-06-12T14:43:50.628Z,48.82
2018-06-12T14:46:19.735Z,47.58
2018-06-12T14:48:48.964Z,48.95
2018-06-12T14:51:18.063Z,49.11
2018-06-12T14:53:47.157Z,48.78
2018-06-12T14:56:16.265Z,50.37
2018-06-12T14:58:45.389Z,48.66
2018-06-12T15:01:16.471Z,48.23
2018-06-12T15:03:45.616Z,49.02
2018-06-12T15:06:15.814Z,48.97
2018-06-12T15:08:45.511Z,48.67
2018-06-12T15:11:15.741Z,49.36
2018-06-12T15:13:45.552Z,49.52
2018-06-12T15:16:15.886Z,49.00
2018-06-12T15:18:45.040Z,49.13
2018-06-12T15:21:14.105Z,48.98
2018-06-12T15:23:43.208Z,49.16
2018-06-12T15:26:12.356Z,49.10
2018-06-12T15:28:41.472Z,49.95
2018-06-12T15:31:10.565Z,49.72
2018-06-12T15:33:41.070Z,49.30
2018-06-12T15:36:10.439Z,48.90
2018-06-12T15:38:39.551Z,49.11
2018-06-12T15:41:08.619Z,49.67
2018-06-12T15:43:37.729Z,48.87
2018-06-12T15:46:06.796Z,48.81
2018-06-12T15:48:35.880Z,49.95
2018-06-12T15:51:05.025Z,49.05
2018-06-12T15:53:34.124Z,48.74
2018-06-12T15:56:03.209Z,49.50
2018-06-12T15:58:32.291Z,49.66
2018-06-12T16:01:01.364Z,50.56
2018-06-12T16:03:30.456Z,50.36
2018-06-12T16:05:59.520Z,50.33
2018-06-12T16:08:28.625Z,51.00
2018-06-12T16:10:57.708Z,51.42
2018-06-12T16:13:27.589Z,50.85
2018-06-12T16:15:56.667Z,51.35
2018-06-12T16:18:25.752Z,51.25
2018-06-12T16:20:55.667Z,51.03
2018-06-12T16:23:25.803Z,51.60
2018-06-12T16:25:56.092Z,51.92
2018-06-12T16:28:25.648Z,52.19
2018-06-12T16:30:54.725Z,53.15
2018-06-12T16:33:23.791Z,51.73
2018-06-12T16:35:52.891Z,52.40
2018-06-12T16:38:21.962Z,52.31
2018-06-12T16:40:51.052Z,52.45
2018-06-12T16:43:20.160Z,52.68
2018-06-12T16:45:49.252Z,52.64
2018-06-12T16:48:18.347Z,52.76
2018-06-12T16:50:47.454Z,52.67
2018-06-12T16:53:16.523Z,53.13
2018-06-12T16:55:45.641Z,52.84
2018-06-12T16:58:14.804Z,53.28
2018-06-12T17:00:43.916Z,52.15
2018-06-12T17:03:13.025Z,52.26
2018-06-12T17:05:42.124Z,52.13
2018-06-12T17:08:11.199Z,51.81
2018-06-12T17:10:40.381Z,51.84
2018-06-12T17:13:09.387Z,52.29
2018-06-12T17:15:38.493Z,52.90
2018-06-12T17:18:07.708Z,51.99
2018-06-12T17:20:36.901Z,52.26
2018-06-12T17:23:05.998Z,52.95
2018-06-12T17:25:35.092Z,53.55
2018-06-12T17:28:04.199Z,52.28
2018-06-12T17:30:33.329Z,53.30
2018-06-12T17:33:02.424Z,52.50
2018-06-12T17:35:31.532Z,52.52
2018-06-12T17:38:00.603Z,52.42
2018-06-12T17:40:29.955Z,52.21
2018-06-12T17:42:59.200Z,53.32
2018-06-12T17:45:28.449Z,52.38
2018-06-12T17:47:57.700Z,52.03
2018-06-12T17:50:26.789Z,52.89
2018-06-12T17:52:55.889Z,52.30
2018-06-12T17:55:24.965Z,52.11
2018-06-12T17:57:54.075Z,52.55
2018-06-12T18:00:23.152Z,53.69
2018-06-12T18:02:52.262Z,52.79
2018-06-12T18:05:21.340Z,52.99
2018-06-12T18:07:50.679Z,53.45
2018-06-12T18:10:19.784Z,53.99
2018-06-12T18:12:48.906Z,54.15
2018-06-12T18:15:18.037Z,53.70
2018-06-12T18:17:47.129Z,53.97
2018-06-12T18:20:20.369Z,54.18
2018-06-12T18:22:49.500Z,53.71
2018-06-12T18:25:18.708Z,54.40
2018-06-12T18:27:47.809Z,53.94
2018-06-12T18:30:16.886Z,54.00
2018-06-12T18:32:45.984Z,53.95
2018-06-12T18:35:15.068Z,54.31
2018-06-12T18:37:44.176Z,54.41
2018-06-12T18:40:13.252Z,54.50
2018-06-12T18:42:42.377Z,54.45
2018-06-12T18:46:57.576Z,55.40
2018-06-12T18:49:26.766Z,54.91
2018-06-12T18:51:56.093Z,54.91
2018-06-12T18:54:25.216Z,54.94
2018-06-12T18:56:54.332Z,55.03
2018-06-12T18:59:23.608Z,55.07
2018-06-12T19:01:52.793Z,55.39
2018-06-12T19:04:22.344Z,55.37
2018-06-12T19:06:52.009Z,54.88
2018-06-12T19:09:21.838Z,54.90
2018-06-12T19:11:51.325Z,55.05
2018-06-12T19:14:20.565Z,55.30
2018-06-12T19:16:49.749Z,55.09
2018-06-12T19:19:18.916Z,55.67
2018-06-12T19:21:48.094Z,55.59
2018-06-12T19:24:17.392Z,54.82
2018-06-12T19:26:46.744Z,55.61
2018-06-12T19:29:15.824Z,55.65
2018-06-12T19:31:45.141Z,54.95
2018-06-12T19:34:14.328Z,56.07
2018-06-12T19:36:43.479Z,55.92
2018-06-12T19:39:12.632Z,55.56
2018-06-12T19:41:41.896Z,55.25
2018-06-12T19:44:11.439Z,55.40
2018-06-12T19:46:40.573Z,55.14
2018-06-12T19:49:09.756Z,55.57
2018-06-12T19:51:38.944Z,55.80
2018-06-12T19:54:08.080Z,55.57
2018-06-12T19:56:37.313Z,55.52
2018-06-12T19:59:06.508Z,55.42
2018-06-12T20:01:37.693Z,54.92
2018-06-12T20:04:06.889Z,55.67
2018-06-12T20:06:35.997Z,55.43
2018-06-12T20:09:07.544Z,54.99
2018-06-12T20:11:36.765Z,55.38
2018-06-12T20:14:05.855Z,55.31
2018-06-12T20:16:35.907Z,55.32
2018-06-12T20:19:05.101Z,55.88
2018-06-12T20:21:34.232Z,55.30
2018-06-12T20:24:03.445Z,54.98
2018-06-12T20:26:32.592Z,55.81
2018-06-12T20:29:01.741Z,55.50
2018-06-12T20:31:30.947Z,55.13
2018-06-12T20:34:00.096Z,56.01
2018-06-12T20:36:29.236Z,55.00
2018-06-12T20:38:58.376Z,54.74
2018-06-12T20:41:27.497Z,54.43
2018-06-12T20:43:56.624Z,54.13
2018-06-12T20:46:25.804Z,54.35
2018-06-12T20:48:54.885Z,55.04
2018-06-12T20:51:23.997Z,54.74
2018-06-12T20:53:53.156Z,54.06
2018-06-12T20:56:22.501Z,54.97
2018-06-12T20:58:51.617Z,54.31
2018-06-12T21:01:20.732Z,54.56
2018-06-12T21:03:49.810Z,54.41
2018-06-12T21:06:19.088Z,54.61
2018-06-12T21:08:48.173Z,55.36
2018-06-12T21:11:17.239Z,54.95
2018-06-12T21:13:46.387Z,54.78
2018-06-12T21:16:15.459Z,54.80
2018-06-12T21:18:44.553Z,55.48
2018-06-12T21:21:13.628Z,55.74
2018-06-12T21:23:42.723Z,55.29
2018-06-12T21:26:11.801Z,55.77
2018-06-12T21:28:40.887Z,55.29
2018-06-12T21:31:09.969Z,55.77
2018-06-12T21:33:39.073Z,55.72
2018-06-12T21:36:08.147Z,55.78
2018-06-12T21:38:37.244Z,56.69
2018-06-12T21:41:06.327Z,56.30
2018-06-12T21:43:35.446Z,56.50
2018-06-12T21:46:04.820Z,56.72
2018-06-12T21:48:33.912Z,56.88
2018-06-12T21:51:02.993Z,56.92
2018-06-12T21:53:32.083Z,57.34
2018-06-12T21:56:01.160Z,57.13
2018-06-12T21:58:30.256Z,57.77
2018-06-12T22:00:59.332Z,57.72
2018-06-12T22:03:28.420Z,57.59
2018-06-12T22:05:57.496Z,57.89
2018-06-12T22:08:26.609Z,57.93
2018-06-12T22:10:55.695Z,57.71
2018-06-12T22:13:24.765Z,57.57
2018-06-12T22:15:53.864Z,58.39
2018-06-12T22:18:22.941Z,57.62
2018-06-12T22:20:52.041Z,58.36
2018-06-12T22:23:21.117Z,57.71
2018-06-12T22:25:50.211Z,58.21
2018-06-12T22:28:19.294Z,58.26
2018-06-12T22:30:48.386Z,58.91
2018-06-12T22:33:17.459Z,58.86
2018-06-12T22:35:46.558Z,58.76
2018-06-12T22:38:15.643Z,58.31
2018-06-12T22:40:44.736Z,58.67
2018-06-12T22:43:13.823Z,58.55
2018-06-12T22:45:42.922Z,59.01
2018-06-12T22:48:12.027Z,59.01
2018-06-12T22:50:41.115Z,58.31
2018-06-12T22:53:10.182Z,59.20
2018-06-12T22:55:39.273Z,59.56
2018-06-12T22:58:08.337Z,58.87
2018-06-12T23:00:37.427Z,59.19
2018-06-12T23:03:06.496Z,59.41
2018-06-12T23:05:35.580Z,59.69
2018-06-12T23:08:04.733Z,59.74
2018-06-12T23:10:33.820Z,59.60
2018-06-12T23:13:02.889Z,59.21
2018-06-12T23:15:31.984Z,59.76
2018-06-12T23:18:01.057Z,59.48
2018-06-12T23:20:41.548Z,59.99
2018-06-12T23:23:10.620Z,60.25
2018-06-12T23:25:39.712Z,60.28
2018-06-12T23:28:08.785Z,60.22
2018-06-12T23:30:37.872Z,59.79
2018-06-12T23:33:06.945Z,60.38
2018-06-12T23:35:36.033Z,60.60
2018-06-12T23:38:05.130Z,60.33
2018-06-12T23:40:34.184Z,60.14
2018-06-12T23:43:03.297Z,60.58
2018-06-12T23:45:32.368Z,61.34
2018-06-12T23:48:01.456Z,60.84
2018-06-12T23:50:30.524Z,61.39
2018-06-12T23:52:59.620Z,61.97
2018-06-12T23:55:28.699Z,61.54
2018-06-12T23:57:57.792Z,61.99
